Time;durP1;ratioP1;P1;durP2;ratioP2;P2;SDS_P1;SDS_P2;PMS_P1;PMS_P2;Temp;Humidity;BMP_temperature;BMP_pressure;BME280_temperature;BME280_humidity;BME280_pressure;Samples;Min_cycle;Max_cycle;Signal;HPM_P1;HPM_P2
2023/12/21 00:02:05;;;;;;;1.17;1.00;;;7.60;53.60;;;;;;20907;6675;274058;-74
2023/12/21 00:04:40;;;;;;;0.80;0.70;;;7.90;53.10;;;;;;21120;6675;117027;-74
2023/12/21 00:07:17;;;;;;;1.03;0.83;;;7.90;52.90;;;;;;20897;6682;303503;-74
2023/12/21 00:09:55;;;;;;;1.00;0.77;;;7.90;52.90;;;;;;20841;6673;276261;-75
2023/12/21 00:12:29;;;;;;;1.30;0.90;;;8.10;52.30;;;;;;20935;6673;286645;-74
2023/12/21 00:15:05;;;;;;;1.13;0.63;;;8.30;51.90;;;;;;21149;6673;116415;-73
2023/12/21 00:17:41;;;;;;;0.80;0.73;;;8.10;52.10;;;;;;20931;6673;303654;-74
2023/12/21 00:20:20;;;;;;;1.40;0.67;;;8.10;52.10;;;;;;20992;6673;118645;-75
2023/12/21 00:22:53;;;;;;;1.10;0.85;;;8.00;52.50;;;;;;20869;6688;333949;-74
2023/12/21 00:25:28;;;;;;;0.70;0.70;;;8.00;52.40;;;;;;21106;6689;116583;-74
2023/12/21 00:28:04;;;;;;;1.35;0.80;;;7.90;52.70;;;;;;20859;6689;303865;-74
2023/12/21 00:30:39;;;;;;;0.85;0.70;;;8.00;52.60;;;;;;20690;6689;307350;-74
2023/12/21 00:33:15;;;;;;;0.87;0.60;;;8.20;52.10;;;;;;21071;6691;116398;-74
2023/12/21 00:35:53;;;;;;;1.00;0.88;;;8.10;52.50;;;;;;20874;6691;275824;-74
2023/12/21 00:38:27;;;;;;;0.57;0.57;;;8.10;53.00;;;;;;21086;6691;116661;-74
2023/12/21 00:41:03;;;;;;;0.85;0.75;;;8.00;52.80;;;;;;20668;6691;335107;-74
2023/12/21 00:43:39;;;;;;;1.40;0.90;;;8.00;52.90;;;;;;20868;6691;276650;-74
2023/12/21 00:46:14;;;;;;;1.00;0.75;;;8.30;52.70;;;;;;20858;6690;274337;-74
2023/12/21 00:48:50;;;;;;;0.57;0.57;;;8.50;52.30;;;;;;21085;6690;116320;-75
2023/12/21 00:51:26;;;;;;;0.57;0.43;;;8.00;53.60;;;;;;20856;6761;117126;-74
2023/12/21 00:54:02;;;;;;;1.25;0.73;;;8.00;53.30;;;;;;20833;6690;300900;-74
2023/12/21 00:56:38;;;;;;;1.23;0.60;;;7.90;53.70;;;;;;21056;6690;117020;-74
2023/12/21 00:59:14;;;;;;;2.40;0.70;;;7.90;53.60;;;;;;21023;6690;119365;-74
2023/12/21 01:01:49;;;;;;;0.73;0.70;;;7.70;54.10;;;;;;20833;6690;322900;-73
2023/12/21 01:04:25;;;;;;;0.90;0.70;;;7.80;54.10;;;;;;21046;6690;117597;-74
2023/12/21 01:07:02;;;;;;;1.10;0.62;;;7.70;54.10;;;;;;20843;6691;300156;-74
2023/12/21 01:09:38;;;;;;;0.67;0.57;;;7.80;54.00;;;;;;21006;6691;116631;-74
2023/12/21 01:12:14;;;;;;;2.97;0.60;;;7.80;54.00;;;;;;21063;6691;117513;-74
2023/12/21 01:14:49;;;;;;;1.10;0.50;;;7.60;54.40;;;;;;21098;6691;116781;-74
2023/12/21 01:17:26;;;;;;;0.60;0.60;;;7.40;54.90;;;;;;20881;6691;331293;-74
2023/12/21 01:20:02;;;;;;;1.17;0.70;;;7.60;54.70;;;;;;20752;6691;305814;-74
2023/12/21 01:22:38;;;;;;;0.90;0.80;;;7.90;53.90;;;;;;20879;6691;326954;-74
2023/12/21 01:25:13;;;;;;;1.00;0.90;;;8.20;53.30;;;;;;21101;6691;116626;-74
2023/12/21 01:27:49;;;;;;;1.03;0.70;;;8.10;53.40;;;;;;21095;6691;116395;-74
2023/12/21 01:30:24;;;;;;;0.60;0.55;;;7.80;53.90;;;;;;20725;6690;325079;-74
2023/12/21 01:33:03;;;;;;;0.80;0.60;;;7.90;53.90;;;;;;20881;6691;274922;-74
2023/12/21 01:35:36;;;;;;;1.85;0.88;;;8.20;53.40;;;;;;20883;6691;276330;-74
2023/12/21 01:38:11;;;;;;;0.37;0.37;;;8.40;52.90;;;;;;21076;6691;116637;-74
2023/12/21 01:40:47;;;;;;;0.40;0.40;;;7.90;53.70;;;;;;20922;6691;119436;-74
2023/12/21 01:43:23;;;;;;;0.60;0.60;;;7.90;53.70;;;;;;21094;6691;117210;-75
2023/12/21 01:45:59;;;;;;;0.40;0.40;;;7.70;54.40;;;;;;20866;6691;274807;-75
2023/12/21 01:48:34;;;;;;;0.60;0.50;;;7.80;54.40;;;;;;20882;6691;276086;-75
2023/12/21 01:51:11;;;;;;;0.70;0.60;;;8.30;53.40;;;;;;20672;6691;276461;-75
2023/12/21 01:53:46;;;;;;;0.40;0.40;;;8.30;53.40;;;;;;20880;6691;315416;-75
2023/12/21 01:56:22;;;;;;;0.80;0.50;;;8.60;52.30;;;;;;20880;6690;335577;-75
2023/12/21 01:58:58;;;;;;;0.77;0.40;;;8.60;52.80;;;;;;21132;6690;116279;-74
2023/12/21 02:01:34;;;;;;;0.82;0.43;;;8.50;53.30;;;;;;20886;6690;332455;-75
2023/12/21 02:04:09;;;;;;;0.30;0.30;;;8.40;53.50;;;;;;21095;6690;116500;-75
2023/12/21 02:06:45;;;;;;;0.40;0.40;;;8.20;53.90;;;;;;20880;6690;332528;-75
2023/12/21 02:09:20;;;;;;;0.93;0.70;;;8.20;54.10;;;;;;21054;6690;116380;-75
2023/12/21 02:11:56;;;;;;;0.30;0.30;;;8.10;54.30;;;;;;20856;6690;313461;-75
2023/12/21 02:14:32;;;;;;;0.90;0.60;;;8.10;54.50;;;;;;21096;6690;116825;-74
2023/12/21 02:17:11;;;;;;;0.57;0.47;;;8.00;54.60;;;;;;20883;6691;315097;-74
2023/12/21 02:19:46;;;;;;;0.50;0.37;;;8.10;54.90;;;;;;20800;6691;321844;-74
2023/12/21 02:22:22;;;;;;;0.30;0.30;;;8.20;54.60;;;;;;21075;6690;117853;-74
2023/12/21 02:24:58;;;;;;;0.40;0.40;;;8.20;54.60;;;;;;20880;6691;302876;-74
2023/12/21 02:27:33;;;;;;;0.63;0.30;;;8.30;54.90;;;;;;20884;6691;275695;-74
2023/12/21 02:30:09;;;;;;;0.43;0.40;;;8.40;54.40;;;;;;20745;6691;278248;-74
2023/12/21 02:32:46;;;;;;;0.80;0.30;;;8.70;53.60;;;;;;20877;6691;307920;-74
2023/12/21 02:35:21;;;;;;;0.53;0.30;;;8.70;53.60;;;;;;21093;6691;116983;-74
2023/12/21 02:37:57;;;;;;;0.60;0.35;;;8.50;53.90;;;;;;20864;6691;274475;-74
2023/12/21 02:40:35;;;;;;;0.23;0.23;;;8.40;54.10;;;;;;20944;6691;117092;-74
2023/12/21 02:43:11;;;;;;;0.70;0.20;;;8.20;54.30;;;;;;21094;6691;117101;-74
2023/12/21 02:45:47;;;;;;;0.93;0.40;;;7.90;54.90;;;;;;21094;6691;116581;-74
2023/12/21 02:48:23;;;;;;;0.43;0.28;;;7.80;55.50;;;;;;20862;6690;334339;-74
2023/12/21 02:50:59;;;;;;;0.40;0.40;;;7.80;55.50;;;;;;20903;6691;117827;-74
2023/12/21 02:53:35;;;;;;;0.50;0.40;;;7.80;55.50;;;;;;20880;6691;303191;-74
2023/12/21 02:56:11;;;;;;;0.40;0.40;;;7.90;55.40;;;;;;21074;6691;116514;-74
2023/12/21 02:58:47;;;;;;;0.20;0.20;;;7.90;55.40;;;;;;21094;6691;116639;-74
2023/12/21 03:01:22;;;;;;;0.20;0.20;;;7.70;55.80;;;;;;20869;6762;116810;-74
2023/12/21 03:04:00;;;;;;;0.30;0.30;;;7.50;56.30;;;;;;21059;6691;117086;-74
2023/12/21 03:06:36;;;;;;;0.20;0.20;;;7.40;56.70;;;;;;21091;6691;116569;-74
2023/12/21 03:09:12;;;;;;;0.45;0.30;;;7.30;57.00;;;;;;20859;6690;332083;-74
2023/12/21 03:11:49;;;;;;;0.30;0.30;;;7.50;56.50;;;;;;21094;6690;116512;-74
2023/12/21 03:14:26;;;;;;;0.30;0.30;;;7.70;56.30;;;;;;20864;6690;303466;-73
2023/12/21 03:17:02;;;;;;;0.30;0.30;;;7.70;56.20;;;;;;21096;6690;116346;-74
2023/12/21 03:19:37;;;;;;;0.60;0.30;;;7.70;56.20;;;;;;20817;6690;305593;-74
2023/12/21 03:22:13;;;;;;;0.30;0.30;;;7.90;56.10;;;;;;20855;6690;304281;-74
2023/12/21 03:24:48;;;;;;;0.50;0.30;;;8.20;55.50;;;;;;20879;6690;304129;-74
2023/12/21 03:27:24;;;;;;;0.20;0.20;;;8.40;54.80;;;;;;21095;6691;116197;-74
2023/12/21 03:30:00;;;;;;;0.20;0.20;;;8.30;54.90;;;;;;20748;6691;286135;-73
2023/12/21 03:32:36;;;;;;;0.20;0.20;;;8.50;54.50;;;;;;20880;6691;273682;-74
2023/12/21 03:35:12;;;;;;;0.20;0.20;;;8.50;54.50;;;;;;21092;6691;116716;-74
2023/12/21 03:37:49;;;;;;;0.20;0.20;;;8.40;54.60;;;;;;21096;6691;117794;-74
2023/12/21 03:40:26;;;;;;;0.50;0.50;;;8.10;55.10;;;;;;20940;6690;116896;-74
2023/12/21 03:43:02;;;;;;;0.20;0.20;;;7.90;55.80;;;;;;20881;6691;274447;-74
2023/12/21 03:45:40;;;;;;;0.37;0.20;;;8.00;55.80;;;;;;21096;6691;116419;-73
2023/12/21 03:48:12;;;;;;;0.20;0.20;;;7.90;55.70;;;;;;20862;6691;304875;-74
2023/12/21 03:50:48;;;;;;;0.30;0.30;;;8.10;55.80;;;;;;20922;6691;116943;-74
2023/12/21 03:53:23;;;;;;;0.20;0.20;;;8.10;55.80;;;;;;21073;6691;116838;-74
2023/12/21 03:55:59;;;;;;;0.62;0.30;;;7.80;56.00;;;;;;20858;6691;275658;-74
2023/12/21 03:58:38;;;;;;;0.20;0.20;;;8.00;56.00;;;;;;21096;6691;119171;-74
2023/12/21 04:01:14;;;;;;;0.20;0.20;;;7.80;56.40;;;;;;20873;6691;117952;-74
2023/12/21 04:03:50;;;;;;;0.40;0.30;;;7.70;56.20;;;;;;21092;6691;118201;-74
2023/12/21 04:06:25;;;;;;;0.20;0.20;;;7.60;56.60;;;;;;21077;6690;116416;-74
2023/12/21 04:09:02;;;;;;;0.20;0.20;;;7.40;57.40;;;;;;21089;6691;120076;-74
2023/12/21 04:11:38;;;;;;;0.20;0.20;;;7.30;57.60;;;;;;21093;6691;117078;-75
2023/12/21 04:14:17;;;;;;;0.20;0.20;;;7.30;57.60;;;;;;21075;6691;116632;-71
2023/12/21 04:16:50;;;;;;;0.20;0.20;;;7.20;57.80;;;;;;21098;6691;116414;-71
2023/12/21 04:19:25;;;;;;;0.30;0.30;;;7.20;58.10;;;;;;20840;6691;308741;-71
2023/12/21 04:22:00;;;;;;;0.60;0.30;;;7.40;57.90;;;;;;21129;6690;116949;-70
2023/12/21 04:24:36;;;;;;;0.17;0.17;;;7.50;57.70;;;;;;21152;6690;118384;-71
2023/12/21 04:27:12;;;;;;;0.20;0.20;;;7.50;57.90;;;;;;20918;6690;303260;-71
2023/12/21 04:29:47;;;;;;;0.23;0.20;;;7.70;57.60;;;;;;21021;6690;117073;-71
2023/12/21 04:32:23;;;;;;;1.07;0.27;;;7.60;57.50;;;;;;21080;6690;116464;-71
2023/12/21 04:34:59;;;;;;;0.20;0.20;;;7.60;57.50;;;;;;20876;6690;290447;-71
2023/12/21 04:37:35;;;;;;;0.20;0.20;;;8.10;56.50;;;;;;20884;6690;274068;-71
2023/12/21 04:40:13;;;;;;;0.20;0.13;;;8.10;56.50;;;;;;20746;6691;295193;-71
2023/12/21 04:42:54;;;;;;;0.27;0.20;;;8.40;55.80;;;;;;20884;6691;276320;-71
2023/12/21 04:45:24;;;;;;;0.10;0.10;;;8.80;54.70;;;;;;20886;6691;274514;-71
2023/12/21 04:48:00;;;;;;;0.13;0.13;;;8.80;54.70;;;;;;21076;6691;117073;-71
2023/12/21 04:50:36;;;;;;;2.40;0.20;;;8.60;55.00;;;;;;20728;6691;322284;-71
2023/12/21 04:53:12;;;;;;;0.10;0.10;;;8.60;55.00;;;;;;21096;6691;117481;-72
2023/12/21 04:55:48;;;;;;;0.20;0.20;;;8.50;55.20;;;;;;21096;6691;116678;-71
2023/12/21 04:58:24;;;;;;;0.17;0.17;;;8.00;56.30;;;;;;21077;6690;116610;-71
2023/12/21 05:01:03;;;;;;;0.57;0.20;;;8.00;56.30;;;;;;20908;6691;116908;-71
2023/12/21 05:03:35;;;;;;;0.20;0.20;;;7.80;56.70;;;;;;20879;6691;332707;-71
2023/12/21 05:06:10;;;;;;;0.20;0.20;;;7.90;56.60;;;;;;20861;6691;332136;-70
2023/12/21 05:08:46;;;;;;;1.17;0.27;;;8.30;56.10;;;;;;21096;6691;116655;-71
2023/12/21 05:11:22;;;;;;;0.17;0.17;;;8.20;55.90;;;;;;20655;6762;335496;-72
2023/12/21 05:13:57;;;;;;;0.10;0.10;;;8.30;55.80;;;;;;21074;6691;116935;-71
2023/12/21 05:16:33;;;;;;;0.10;0.10;;;8.30;55.90;;;;;;20885;6691;333052;-70
2023/12/21 05:19:08;;;;;;;0.20;0.20;;;8.40;55.80;;;;;;21072;6691;116700;-71
2023/12/21 05:21:46;;;;;;;0.20;0.20;;;8.40;55.90;;;;;;20861;6691;332952;-71
2023/12/21 05:24:21;;;;;;;0.40;0.40;;;8.40;55.80;;;;;;21078;6690;117108;-73
2023/12/21 05:27:00;;;;;;;0.20;0.20;;;8.30;55.90;;;;;;21082;6691;116385;-73
2023/12/21 05:29:33;;;;;;;0.20;0.20;;;8.10;56.40;;;;;;20823;6691;335265;-72
2023/12/21 05:32:08;;;;;;;0.20;0.20;;;8.20;56.40;;;;;;20854;6691;303283;-72
2023/12/21 05:34:44;;;;;;;0.30;0.30;;;8.50;55.90;;;;;;21096;6690;117805;-76
2023/12/21 05:37:19;;;;;;;0.20;0.20;;;8.40;55.80;;;;;;21095;6690;116633;-73
2023/12/21 05:39:56;;;;;;;0.20;0.20;;;8.30;56.50;;;;;;20756;6690;335057;-74
2023/12/21 05:42:31;;;;;;;0.13;0.10;;;8.30;56.50;;;;;;21088;6690;117780;-73
2023/12/21 05:45:07;;;;;;;0.22;0.20;;;8.30;56.50;;;;;;20872;6690;304370;-73
2023/12/21 05:47:43;;;;;;;0.55;0.47;;;8.40;56.50;;;;;;20866;6690;332711;-73
2023/12/21 05:50:18;;;;;;;0.17;0.13;;;8.60;56.10;;;;;;20916;6691;118129;-74
2023/12/21 05:52:54;;;;;;;0.47;0.20;;;8.60;56.10;;;;;;21078;6691;116746;-75
2023/12/21 05:55:31;;;;;;;0.22;0.20;;;8.30;56.50;;;;;;20860;6691;336182;-74
2023/12/21 05:58:05;;;;;;;0.20;0.20;;;8.40;56.70;;;;;;21049;6691;117080;-74
2023/12/21 06:00:41;;;;;;;1.50;0.28;;;8.30;56.70;;;;;;20711;6691;334936;-73
2023/12/21 06:03:18;;;;;;;0.22;0.20;;;8.40;56.80;;;;;;20869;6691;303993;-77
2023/12/21 06:05:54;;;;;;;0.20;0.20;;;8.70;56.60;;;;;;21073;6691;119969;-79
2023/12/21 06:08:30;;;;;;;0.40;0.10;;;8.40;57.00;;;;;;21092;6691;116794;-74
2023/12/21 06:11:06;;;;;;;0.77;0.20;;;8.40;57.00;;;;;;20676;6691;297654;-75
2023/12/21 06:13:41;;;;;;;0.20;0.20;;;8.40;57.30;;;;;;21092;6691;116847;-78
2023/12/21 06:16:18;;;;;;;0.20;0.20;;;8.40;57.40;;;;;;20856;6691;303374;-78
2023/12/21 06:18:54;;;;;;;0.20;0.20;;;8.50;57.60;;;;;;21085;6691;118191;-75
2023/12/21 06:21:29;;;;;;;0.40;0.20;;;8.40;57.50;;;;;;20905;6691;303394;-75
2023/12/21 06:24:05;;;;;;;0.20;0.20;;;8.50;57.80;;;;;;20856;6691;303652;-77
2023/12/21 06:26:41;;;;;;;1.03;0.20;;;8.80;57.60;;;;;;21096;6691;117090;-75
2023/12/21 06:29:16;;;;;;;0.13;0.13;;;8.70;57.50;;;;;;21060;6691;116639;-75
2023/12/21 06:31:55;;;;;;;0.20;0.20;;;8.40;57.90;;;;;;21085;6691;116669;-75
2023/12/21 06:34:28;;;;;;;0.30;0.30;;;8.00;58.80;;;;;;21090;6691;116625;-75
2023/12/21 06:37:04;;;;;;;0.30;0.30;;;7.90;58.70;;;;;;21087;6691;116819;-74
2023/12/21 06:39:39;;;;;;;0.17;0.17;;;7.80;59.10;;;;;;21000;6691;117813;-74
2023/12/21 06:42:15;;;;;;;0.30;0.30;;;7.70;59.40;;;;;;20862;6691;274842;-74
2023/12/21 06:44:51;;;;;;;0.30;0.30;;;7.90;59.80;;;;;;20910;6690;274449;-74
2023/12/21 06:47:26;;;;;;;0.90;0.40;;;8.30;59.50;;;;;;20928;6690;273169;-74
2023/12/21 06:50:02;;;;;;;0.20;0.20;;;8.60;58.90;;;;;;21012;6690;116977;-74
2023/12/21 06:52:38;;;;;;;0.20;0.20;;;8.50;58.70;;;;;;21119;6690;116704;-74
2023/12/21 06:55:13;;;;;;;0.37;0.37;;;8.30;59.10;;;;;;21098;6690;116360;-74
2023/12/21 06:57:49;;;;;;;0.20;0.20;;;8.10;59.60;;;;;;20883;6690;284223;-74
2023/12/21 07:00:24;;;;;;;0.30;0.30;;;8.20;59.80;;;;;;20727;6690;290721;-74
2023/12/21 07:03:00;;;;;;;0.20;0.20;;;8.50;59.30;;;;;;20879;6691;303211;-74
2023/12/21 07:05:35;;;;;;;0.20;0.20;;;8.80;58.50;;;;;;21095;6691;116408;-74
2023/12/21 07:08:12;;;;;;;1.10;0.33;;;8.70;58.40;;;;;;21072;6691;116625;-74
2023/12/21 07:10:48;;;;;;;1.07;0.20;;;8.60;58.90;;;;;;20704;6691;305729;-74
2023/12/21 07:13:24;;;;;;;0.30;0.30;;;8.60;58.90;;;;;;21095;6691;116348;-74
2023/12/21 07:16:00;;;;;;;0.30;0.30;;;8.60;58.80;;;;;;20862;6691;274040;-75
2023/12/21 07:18:35;;;;;;;0.30;0.30;;;8.70;58.50;;;;;;21089;6691;117592;-74
2023/12/21 07:21:12;;;;;;;0.20;0.20;;;8.70;58.50;;;;;;20883;6691;118003;-73
2023/12/21 07:23:46;;;;;;;0.30;0.30;;;8.50;58.80;;;;;;20885;6691;302972;-74
2023/12/21 07:26:22;;;;;;;0.30;0.30;;;8.60;58.70;;;;;;21078;6690;116434;-75
2023/12/21 07:28:57;;;;;;;0.23;0.23;;;8.60;58.70;;;;;;21090;6691;117939;-75
2023/12/21 07:31:33;;;;;;;0.20;0.20;;;8.40;58.80;;;;;;21092;6691;122857;-77
2023/12/21 07:34:09;;;;;;;0.30;0.30;;;8.30;59.10;;;;;;20864;6691;274154;-77
2023/12/21 07:36:44;;;;;;;0.50;0.20;;;8.40;59.00;;;;;;21097;6691;116667;-79
2023/12/21 07:39:20;;;;;;;0.20;0.20;;;8.50;58.80;;;;;;20815;6691;307999;-77
2023/12/21 07:41:55;;;;;;;0.33;0.33;;;8.70;58.60;;;;;;21072;6691;122521;-78
2023/12/21 07:44:32;;;;;;;0.50;0.40;;;8.70;58.40;;;;;;21059;6691;116820;-77
2023/12/21 07:47:06;;;;;;;0.43;0.30;;;8.50;58.70;;;;;;20881;6691;274941;-77
2023/12/21 07:49:42;;;;;;;0.30;0.30;;;8.60;58.50;;;;;;20783;6691;305358;-76
2023/12/21 07:52:19;;;;;;;0.20;0.20;;;9.00;57.90;;;;;;20857;6691;304672;-77
2023/12/21 07:54:55;;;;;;;0.20;0.20;;;9.20;57.70;;;;;;21098;6691;116275;-77
2023/12/21 07:57:34;;;;;;;0.30;0.30;;;9.10;56.90;;;;;;20880;6690;302869;-76
2023/12/21 08:00:09;;;;;;;0.80;0.80;;;9.40;56.40;;;;;;20744;6690;276405;-77
2023/12/21 08:02:44;;;;;;;1.10;1.10;;;9.30;56.50;;;;;;21088;6690;117697;-77
2023/12/21 08:05:22;;;;;;;1.27;0.77;;;9.30;56.50;;;;;;20874;6690;305104;-76
2023/12/21 08:07:55;;;;;;;0.90;0.90;;;9.40;56.50;;;;;;20857;6690;274287;-75
2023/12/21 08:10:31;;;;;;;1.47;1.47;;;9.50;55.90;;;;;;20716;6690;310097;-77
2023/12/21 08:13:09;;;;;;;1.90;1.90;;;9.70;55.60;;;;;;20862;6690;332966;-76
2023/12/21 08:15:45;;;;;;;1.33;1.33;;;9.90;55.30;;;;;;20866;6691;305220;-76
2023/12/21 08:18:21;;;;;;;1.03;0.80;;;10.00;53.90;;;;;;21061;6690;116763;-76
2023/12/21 08:20:56;;;;;;;0.60;0.60;;;9.80;55.20;;;;;;20889;6691;117456;-76
2023/12/21 08:23:31;;;;;;;0.68;0.68;;;9.40;55.80;;;;;;20881;6691;332553;-76
2023/12/21 08:26:08;;;;;;;1.50;1.40;;;9.60;55.70;;;;;;20860;6691;295748;-79
2023/12/21 08:28:43;;;;;;;0.90;0.90;;;9.60;55.70;;;;;;21091;6691;117454;-75
2023/12/21 08:31:22;;;;;;;0.70;0.70;;;9.50;55.80;;;;;;20858;6691;115221;-77
2023/12/21 08:33:57;;;;;;;0.60;0.60;;;9.20;56.30;;;;;;21078;6691;116798;-77
2023/12/21 08:36:34;;;;;;;0.62;0.57;;;9.10;57.00;;;;;;20886;6691;274336;-76
2023/12/21 08:39:09;;;;;;;0.60;0.60;;;9.10;56.90;;;;;;20858;6691;274436;-77
2023/12/21 08:41:45;;;;;;;0.50;0.50;;;9.40;56.60;;;;;;20879;6576;305471;-71
2023/12/21 08:44:21;;;;;;;0.52;0.40;;;9.80;55.50;;;;;;20766;6718;334449;-71
2023/12/21 08:46:57;;;;;;;0.40;0.40;;;9.80;55.40;;;;;;21004;6728;117468;-73
2023/12/21 08:49:33;;;;;;;2.70;1.17;;;9.40;56.20;;;;;;20892;6742;117345;-73
2023/12/21 08:52:09;;;;;;;2.00;1.90;;;9.40;56.20;;;;;;20845;6699;304043;-76
2023/12/21 08:54:44;;;;;;;2.30;2.20;;;9.50;56.30;;;;;;21140;6676;116634;-73
2023/12/21 08:57:20;;;;;;;1.70;1.60;;;9.20;56.90;;;;;;21092;6691;118412;-72
2023/12/21 08:59:56;;;;;;;1.00;1.00;;;9.10;56.80;;;;;;20984;6691;123156;-72
2023/12/21 09:02:32;;;;;;;1.10;1.10;;;8.90;58.50;;;;;;21088;6691;116866;-72
2023/12/21 09:05:08;;;;;;;1.80;1.67;;;8.80;57.70;;;;;;21092;6691;117066;-72
2023/12/21 09:07:44;;;;;;;1.90;1.80;;;8.90;58.30;;;;;;20874;6690;306459;-72
2023/12/21 09:10:20;;;;;;;1.00;1.00;;;8.90;57.90;;;;;;20955;6690;124323;-72
2023/12/21 09:12:55;;;;;;;1.30;1.30;;;9.00;57.70;;;;;;20874;6690;341146;-72
2023/12/21 09:15:32;;;;;;;0.60;0.60;;;9.20;57.40;;;;;;21094;6690;117225;-72
2023/12/21 09:18:09;;;;;;;0.88;0.88;;;9.40;57.00;;;;;;20850;6691;303576;-73
2023/12/21 09:20:45;;;;;;;0.50;0.50;;;9.40;57.00;;;;;;20937;6690;122808;-72
2023/12/21 09:23:20;;;;;;;1.80;1.70;;;9.40;57.00;;;;;;21109;6682;116783;-73
2023/12/21 09:25:56;;;;;;;2.70;2.50;;;9.30;57.30;;;;;;20823;6682;305862;-72
2023/12/21 09:28:32;;;;;;;1.77;1.67;;;9.40;57.20;;;;;;21112;6683;116552;-71
2023/12/21 09:31:08;;;;;;;1.58;1.48;;;9.50;56.90;;;;;;20732;6674;277071;-71
2023/12/21 09:33:44;;;;;;;1.67;1.67;;;9.50;56.90;;;;;;21140;6674;117246;-71
2023/12/21 09:36:19;;;;;;;2.73;2.53;;;9.50;56.90;;;;;;21082;6689;118204;-72
2023/12/21 09:38:55;;;;;;;1.30;1.30;;;9.40;57.40;;;;;;20825;6707;304319;-72
2023/12/21 09:41:30;;;;;;;1.90;1.83;;;9.50;57.20;;;;;;21142;6674;122202;-72
2023/12/21 09:44:06;;;;;;;0.60;0.60;;;9.50;57.20;;;;;;21073;6689;117086;-72
2023/12/21 09:46:41;;;;;;;0.40;0.30;;;9.30;57.50;;;;;;20793;6719;333679;-72
2023/12/21 09:49:17;;;;;;;0.50;0.50;;;9.50;57.50;;;;;;20920;6736;116825;-72
2023/12/21 09:51:53;;;;;;;1.80;0.50;;;9.70;57.40;;;;;;20752;6730;334467;-74
2023/12/21 09:54:29;;;;;;;0.50;0.50;;;9.60;57.40;;;;;;21012;6719;117225;-72
2023/12/21 09:57:05;;;;;;;0.40;0.23;;;9.50;57.60;;;;;;21048;6700;118448;-72
2023/12/21 09:59:41;;;;;;;0.30;0.30;;;9.50;58.30;;;;;;20956;6715;116724;-72
2023/12/21 10:02:17;;;;;;;0.47;0.40;;;9.40;58.10;;;;;;20824;6700;332926;-72
2023/12/21 10:04:52;;;;;;;0.70;0.70;;;9.60;58.10;;;;;;21094;6689;117095;-73
2023/12/21 10:07:28;;;;;;;0.50;0.50;;;9.60;57.90;;;;;;21055;6704;116902;-72
2023/12/21 10:10:04;;;;;;;0.40;0.40;;;9.50;58.20;;;;;;20667;6722;308046;-72
2023/12/21 10:12:40;;;;;;;0.80;0.40;;;9.70;57.90;;;;;;20873;6692;303932;-72
2023/12/21 10:15:20;;;;;;;0.40;0.40;;;10.00;56.10;;;;;;21040;6707;117485;-73
2023/12/21 10:17:55;;;;;;;0.20;0.20;;;10.10;56.10;;;;;;20855;6692;304231;-71
2023/12/21 10:20:30;;;;;;;0.80;0.80;;;10.20;55.80;;;;;;20915;6707;123560;-72
2023/12/21 10:23:07;;;;;;;4.13;3.83;;;10.10;55.70;;;;;;20923;6676;302922;-73
2023/12/21 10:25:42;;;;;;;1.02;1.02;;;10.20;55.50;;;;;;20925;6676;275614;-70
2023/12/21 10:28:17;;;;;;;0.60;0.60;;;10.50;55.00;;;;;;21005;6714;116752;-72
2023/12/21 10:30:56;;;;;;;1.50;1.50;;;10.40;55.00;;;;;;20669;6710;308345;-74
2023/12/21 10:33:31;;;;;;;1.20;1.20;;;10.40;55.00;;;;;;20885;6689;304827;-72
2023/12/21 10:36:07;;;;;;;1.10;1.10;;;10.60;54.70;;;;;;21065;6692;117515;-72
2023/12/21 10:38:44;;;;;;;2.00;1.80;;;10.50;54.90;;;;;;21086;6689;116815;-71
2023/12/21 10:41:18;;;;;;;0.52;0.52;;;10.20;55.50;;;;;;20634;6689;335887;-72
2023/12/21 10:43:54;;;;;;;1.00;1.00;;;10.30;55.70;;;;;;21044;6689;118175;-74
2023/12/21 10:46:30;;;;;;;0.63;0.60;;;10.30;55.70;;;;;;21099;6689;117695;-73
2023/12/21 10:49:06;;;;;;;1.50;1.50;;;10.10;56.10;;;;;;21082;6689;116815;-73
2023/12/21 10:51:43;;;;;;;1.58;1.48;;;9.90;57.50;;;;;;20931;6674;305886;-73
2023/12/21 10:54:18;;;;;;;0.87;0.87;;;10.00;56.70;;;;;;21058;6696;116603;-71
2023/12/21 10:56:52;;;;;;;1.00;0.40;;;10.00;56.50;;;;;;20884;6689;294747;-72
2023/12/21 10:59:27;;;;;;;0.70;0.70;;;10.20;56.80;;;;;;21052;6689;116684;-72
2023/12/21 11:02:03;;;;;;;0.75;0.60;;;10.20;56.60;;;;;;20904;6677;302995;-72
2023/12/21 11:04:39;;;;;;;1.93;1.60;;;10.30;56.70;;;;;;21025;6714;117801;-72
2023/12/21 11:07:15;;;;;;;1.23;1.13;;;10.20;56.50;;;;;;21030;6710;116657;-72
2023/12/21 11:09:51;;;;;;;0.80;0.80;;;10.20;57.00;;;;;;20824;6677;335795;-71
2023/12/21 11:12:27;;;;;;;1.30;1.17;;;10.20;57.00;;;;;;21129;6677;116973;-72
2023/12/21 11:15:02;;;;;;;0.70;0.70;;;10.20;56.80;;;;;;20912;6677;332053;-72
2023/12/21 11:17:38;;;;;;;2.65;2.55;;;10.30;56.70;;;;;;20750;6726;334407;-71
2023/12/21 11:20:14;;;;;;;0.90;0.90;;;10.60;56.20;;;;;;20764;6689;277002;-71
2023/12/21 11:22:52;;;;;;;1.70;1.60;;;10.80;55.50;;;;;;21130;6674;117702;-72
2023/12/21 11:25:25;;;;;;;1.80;1.70;;;10.70;55.60;;;;;;21100;6689;116916;-72
2023/12/21 11:28:02;;;;;;;1.10;1.10;;;10.20;56.60;;;;;;21125;6674;118152;-71
2023/12/21 11:30:37;;;;;;;0.50;0.50;;;10.20;56.20;;;;;;20953;6692;121241;-72
2023/12/21 11:33:13;;;;;;;1.00;0.97;;;9.80;57.90;;;;;;21146;6674;117259;-72
2023/12/21 11:35:53;;;;;;;0.90;0.90;;;9.80;57.90;;;;;;20882;6689;275498;-72
2023/12/21 11:38:48;;;;;;;1.50;1.40;;;10.00;57.00;;;;;;20790;6718;305374;-72
2023/12/21 11:41:23;;;;;;;1.10;1.10;;;10.30;56.50;;;;;;20554;6792;333337;-72
2023/12/21 11:43:59;;;;;;;1.20;1.20;;;10.70;55.90;;;;;;20744;6718;333545;-72
2023/12/21 11:46:35;;;;;;;1.50;0.93;;;10.90;55.50;;;;;;20958;6731;116942;-72
2023/12/21 11:49:20;;;;;;;1.60;0.60;;;10.80;55.60;;;;;;20970;6712;120952;-73
2023/12/21 11:51:55;;;;;;;2.20;2.10;;;10.50;55.90;;;;;;20760;6724;275909;-72
2023/12/21 11:54:31;;;;;;;0.53;0.53;;;10.50;56.00;;;;;;20995;6720;118445;-73
2023/12/21 11:57:10;;;;;;;0.60;0.60;;;10.50;56.10;;;;;;20894;6694;304865;-72
2023/12/21 11:59:46;;;;;;;1.00;1.00;;;10.50;55.90;;;;;;20732;6715;321878;-73
2023/12/21 12:02:22;;;;;;;1.10;0.83;;;10.80;55.70;;;;;;20961;6731;116952;-73
2023/12/21 12:04:58;;;;;;;1.30;1.30;;;10.70;55.50;;;;;;20928;6746;116910;-72
2023/12/21 12:07:33;;;;;;;2.85;2.65;;;10.40;55.70;;;;;;20770;6725;305620;-73
2023/12/21 12:10:09;;;;;;;0.93;0.93;;;10.50;55.90;;;;;;20686;6727;280181;-73
2023/12/21 12:12:45;;;;;;;0.67;0.67;;;10.70;55.40;;;;;;21069;6695;118522;-73
2023/12/21 12:15:20;;;;;;;0.50;0.50;;;10.70;55.30;;;;;;21040;6710;120301;-72
2023/12/21 12:17:56;;;;;;;1.00;1.00;;;10.40;55.60;;;;;;21012;6710;117870;-72
2023/12/21 12:20:31;;;;;;;0.90;0.90;;;10.20;55.90;;;;;;20629;6725;337042;-72
2023/12/21 12:23:09;;;;;;;1.63;1.53;;;10.30;56.00;;;;;;21008;6730;117521;-72
2023/12/21 12:25:44;;;;;;;0.60;0.60;;;10.30;56.00;;;;;;20987;6725;118665;-72
2023/12/21 12:28:22;;;;;;;0.57;0.57;;;10.20;56.10;;;;;;21010;6713;119078;-72
2023/12/21 12:30:57;;;;;;;0.70;0.70;;;9.90;57.30;;;;;;20886;6698;118343;-72
2023/12/21 12:33:33;;;;;;;0.50;0.50;;;9.90;57.70;;;;;;20801;6718;317615;-73
2023/12/21 12:36:08;;;;;;;1.03;0.70;;;10.10;56.60;;;;;;20959;6728;123231;-73
2023/12/21 12:38:48;;;;;;;1.48;0.80;;;10.20;56.40;;;;;;20802;6716;334180;-72
2023/12/21 12:41:19;;;;;;;0.40;0.40;;;10.40;56.30;;;;;;20815;6728;117514;-73
2023/12/21 12:43:55;;;;;;;1.60;1.50;;;10.40;55.90;;;;;;20709;6725;337406;-73
2023/12/21 12:46:31;;;;;;;1.85;1.85;;;10.50;55.80;;;;;;20823;6708;305337;-73
2023/12/21 12:49:06;;;;;;;1.77;1.67;;;10.80;55.40;;;;;;20828;6702;274699;-72
2023/12/21 12:51:42;;;;;;;0.60;0.60;;;11.00;54.50;;;;;;21052;6702;117029;-72
2023/12/21 12:54:17;;;;;;;0.77;0.77;;;11.00;55.40;;;;;;20819;6702;304438;-73
2023/12/21 12:56:53;;;;;;;0.60;0.60;;;11.00;54.70;;;;;;21059;6702;117102;-72
2023/12/21 12:59:35;;;;;;;0.30;0.30;;;10.90;54.70;;;;;;20970;6717;116880;-71
2023/12/21 13:02:11;;;;;;;0.55;0.40;;;10.60;55.10;;;;;;20829;6698;333153;-72
2023/12/21 13:04:46;;;;;;;0.35;0.35;;;10.70;55.30;;;;;;20780;6721;335603;-72
2023/12/21 13:07:22;;;;;;;0.30;0.30;;;10.90;55.00;;;;;;21093;6691;118365;-71
2023/12/21 13:09:58;;;;;;;0.30;0.30;;;10.70;56.00;;;;;;20918;6721;118306;-72
2023/12/21 13:12:34;;;;;;;0.30;0.30;;;10.70;55.20;;;;;;20783;6721;305737;-72
2023/12/21 13:15:15;;;;;;;0.47;0.30;;;11.00;54.90;;;;;;20798;6709;277055;-74
2023/12/21 13:17:51;;;;;;;0.30;0.30;;;11.00;54.90;;;;;;20886;6739;117220;-72
2023/12/21 13:20:25;;;;;;;0.20;0.20;;;10.90;54.70;;;;;;20834;6724;117789;-72
2023/12/21 13:23:02;;;;;;;0.40;0.40;;;10.70;54.90;;;;;;21052;6716;116829;-73
2023/12/21 13:25:36;;;;;;;0.90;0.60;;;10.40;55.40;;;;;;20832;6707;303287;-73
2023/12/21 13:28:12;;;;;;;0.20;0.20;;;10.50;56.00;;;;;;21068;6692;116696;-72
2023/12/21 13:30:48;;;;;;;0.20;0.20;;;10.50;56.00;;;;;;20911;6693;120420;-73